Time;durP1;ratioP1;P1;durP2;ratioP2;P2;SDS_P1;SDS_P2;PMS_P1;PMS_P2;Temp;Humidity;BMP_temperature;BMP_pressure;BME280_temperature;BME280_humidity;BME280_pressure;Samples;Min_cycle;Max_cycle;Signal;HPM_P1;HPM_P2
2022/10/19 00:00:24;;;;;;;17.70;8.27;;;;;;;;;;5023299;28;20649;-73
2022/10/19 00:02:49;;;;;;;16.03;8.40;;;;;;;;;;5026449;28;20186;-72
2022/10/19 00:05:14;;;;;;;11.73;7.93;;;;;;;;;;5019751;28;20256;-72
2022/10/19 00:07:40;;;;;;;15.50;8.10;;;;;;;;;;5019135;28;20194;-72
2022/10/19 00:10:05;;;;;;;15.87;8.40;;;;;;;;;;5021520;28;20206;-74
2022/10/19 00:12:30;;;;;;;12.63;8.93;;;;;;;;;;5026694;28;20545;-71
2022/10/19 00:14:56;;;;;;;17.17;8.33;;;;;;;;;;5020794;28;20206;-72
2022/10/19 00:17:21;;;;;;;14.30;8.40;;;;;;;;;;5017311;28;20482;-74
2022/10/19 00:19:46;;;;;;;17.77;9.23;;;;;;;;;;5027642;28;20182;-73
2022/10/19 00:22:12;;;;;;;24.17;10.33;;;;;;;;;;5020281;28;20179;-74
2022/10/19 00:24:37;;;;;;;19.53;9.43;;;;;;;;;;5018544;28;20252;-73
2022/10/19 00:27:02;;;;;;;16.63;8.97;;;;;;;;;;5021914;28;20182;-74
2022/10/19 00:29:27;;;;;;;17.57;10.00;;;;;;;;;;5021464;28;20755;-72
2022/10/19 00:31:53;;;;;;;16.67;8.93;;;;;;;;;;5018475;28;20236;-73
2022/10/19 00:34:18;;;;;;;21.53;10.37;;;;;;;;;;5016072;28;20213;-74
2022/10/19 00:36:43;;;;;;;20.23;10.40;;;;;;;;;;5019782;28;20166;-74
2022/10/19 00:39:13;;;;;;;17.47;10.80;;;;;;;;;;5025028;28;20248;-73
2022/10/19 00:41:38;;;;;;;23.20;11.27;;;;;;;;;;5025958;28;20227;-74
2022/10/19 00:44:05;;;;;;;25.00;12.00;;;;;;;;;;5022625;28;20179;-73
2022/10/19 00:46:32;;;;;;;20.53;12.70;;;;;;;;;;5024837;28;20182;-73
2022/10/19 00:48:59;;;;;;;25.80;11.93;;;;;;;;;;5018539;28;20297;-73
2022/10/19 00:51:26;;;;;;;25.30;12.67;;;;;;;;;;5023819;28;20178;-73
2022/10/19 00:53:51;;;;;;;23.37;13.20;;;;;;;;;;5015729;28;20289;-73
2022/10/19 00:56:17;;;;;;;24.77;13.77;;;;;;;;;;5024907;28;20204;-73
2022/10/19 00:58:42;;;;;;;19.30;11.77;;;;;;;;;;5022185;28;20178;-73
2022/10/19 01:01:09;;;;;;;29.30;13.97;;;;;;;;;;5022657;28;20183;-73
2022/10/19 01:03:34;;;;;;;28.07;13.03;;;;;;;;;;5017528;28;20183;-73
2022/10/19 01:06:00;;;;;;;20.87;12.57;;;;;;;;;;5021377;28;20206;-73
2022/10/19 01:08:25;;;;;;;20.90;11.40;;;;;;;;;;5021865;28;20191;-73
2022/10/19 01:10:57;;;;;;;21.93;11.83;;;;;;;;;;5041600;28;20175;-73
2022/10/19 01:13:27;;;;;;;21.73;11.73;;;;;;;;;;5022799;28;20189;-73
2022/10/19 01:16:14;;;;;;;19.27;10.87;;;;;;;;;;5024792;28;20225;-73
2022/10/19 01:19:03;;;;;;;18.43;10.40;;;;;;;;;;5018149;28;20200;-73
2022/10/19 01:21:33;;;;;;;21.33;11.37;;;;;;;;;;5025179;28;20727;-73
2022/10/19 01:24:22;;;;;;;25.27;11.90;;;;;;;;;;5022258;28;20719;-73
2022/10/19 01:26:59;;;;;;;21.30;9.90;;;;;;;;;;5019327;28;20191;-73
2022/10/19 01:29:27;;;;;;;14.63;9.30;;;;;;;;;;5024529;28;20198;-74
2022/10/19 01:32:01;;;;;;;23.70;9.73;;;;;;;;;;5018650;28;20651;-73
2022/10/19 01:34:31;;;;;;;17.80;9.20;;;;;;;;;;5017947;28;20205;-74
2022/10/19 01:37:02;;;;;;;18.57;9.43;;;;;;;;;;5026567;28;20190;-73
2022/10/19 01:39:37;;;;;;;15.17;9.23;;;;;;;;;;5025351;28;20201;-73
2022/10/19 01:42:08;;;;;;;20.60;9.13;;;;;;;;;;5024587;28;20191;-75
2022/10/19 01:44:50;;;;;;;15.87;8.40;;;;;;;;;;5024782;28;20202;-74
2022/10/19 01:47:19;;;;;;;20.97;9.03;;;;;;;;;;5022866;28;20217;-74
2022/10/19 01:49:49;;;;;;;14.63;8.53;;;;;;;;;;5022284;28;20213;-73
2022/10/19 01:52:16;;;;;;;18.83;9.17;;;;;;;;;;5025349;28;20260;-73
2022/10/19 01:54:43;;;;;;;11.20;7.37;;;;;;;;;;5029083;28;20194;-73
2022/10/19 01:57:10;;;;;;;13.07;7.90;;;;;;;;;;5024751;28;20186;-73
2022/10/19 01:59:36;;;;;;;10.10;7.27;;;;;;;;;;5038812;28;20237;-73
2022/10/19 02:02:02;;;;;;;9.80;7.20;;;;;;;;;;5025165;28;20612;-73
2022/10/19 02:04:27;;;;;;;13.57;6.80;;;;;;;;;;5018164;28;20203;-72
2022/10/19 02:06:53;;;;;;;15.40;7.40;;;;;;;;;;5019853;28;20198;-73
2022/10/19 02:09:19;;;;;;;15.53;7.17;;;;;;;;;;5027056;28;20209;-73
2022/10/19 02:11:49;;;;;;;9.70;7.37;;;;;;;;;;5038901;28;20328;-73
2022/10/19 02:14:17;;;;;;;11.53;7.03;;;;;;;;;;5022974;28;20209;-72
2022/10/19 02:16:45;;;;;;;14.53;7.80;;;;;;;;;;5026204;28;20179;-72
2022/10/19 02:19:13;;;;;;;13.97;7.53;;;;;;;;;;5011229;28;20277;-72
2022/10/19 02:21:38;;;;;;;14.87;8.50;;;;;;;;;;5023724;28;20174;-72
2022/10/19 02:24:04;;;;;;;12.97;7.03;;;;;;;;;;5016546;28;20262;-72
2022/10/19 02:26:29;;;;;;;17.93;7.30;;;;;;;;;;5025481;28;20198;-73
2022/10/19 02:28:54;;;;;;;12.30;7.40;;;;;;;;;;5018882;28;20266;-74
2022/10/19 02:31:20;;;;;;;15.20;7.57;;;;;;;;;;5017124;28;20864;-75
2022/10/19 02:33:45;;;;;;;16.90;7.27;;;;;;;;;;5015113;28;20174;-73
2022/10/19 02:36:10;;;;;;;11.63;6.47;;;;;;;;;;5018020;28;20207;-73
2022/10/19 02:38:36;;;;;;;16.07;6.70;;;;;;;;;;5020502;28;20324;-73
2022/10/19 02:41:22;;;;;;;10.17;6.53;;;;;;;;;;5019651;28;20190;-73
2022/10/19 02:43:49;;;;;;;11.50;6.07;;;;;;;;;;5023508;28;20241;-73
2022/10/19 02:46:33;;;;;;;8.70;5.77;;;;;;;;;;5020149;28;20237;-73
2022/10/19 02:48:58;;;;;;;10.13;5.57;;;;;;;;;;5019940;28;20932;-73
2022/10/19 02:51:34;;;;;;;11.13;5.50;;;;;;;;;;5019925;28;20251;-73
2022/10/19 02:53:59;;;;;;;11.67;6.40;;;;;;;;;;5025023;28;20181;-74
2022/10/19 02:56:24;;;;;;;12.93;5.80;;;;;;;;;;5025769;28;20600;-73
2022/10/19 02:58:49;;;;;;;10.57;5.87;;;;;;;;;;5024774;28;20190;-73
2022/10/19 03:01:14;;;;;;;8.93;5.17;;;;;;;;;;5025356;28;20181;-73
2022/10/19 03:03:40;;;;;;;7.57;5.30;;;;;;;;;;5021853;28;20218;-73
2022/10/19 03:06:05;;;;;;;10.33;5.13;;;;;;;;;;5020391;28;20206;-73
2022/10/19 03:08:30;;;;;;;8.27;5.07;;;;;;;;;;5029477;28;20630;-73
2022/10/19 03:10:58;;;;;;;9.23;4.93;;;;;;;;;;5022562;28;20659;-73
2022/10/19 03:13:24;;;;;;;11.80;5.40;;;;;;;;;;5029219;28;20183;-72
2022/10/19 03:15:49;;;;;;;11.37;5.40;;;;;;;;;;5026774;28;20203;-74
2022/10/19 03:18:14;;;;;;;11.80;5.20;;;;;;;;;;5020383;28;20192;-73
2022/10/19 03:20:39;;;;;;;12.00;6.10;;;;;;;;;;5023341;28;20178;-72
2022/10/19 03:23:04;;;;;;;13.07;5.07;;;;;;;;;;5037690;23;20233;-69
2022/10/19 03:25:30;;;;;;;6.87;5.30;;;;;;;;;;5030309;28;20640;-68
2022/10/19 03:27:55;;;;;;;12.37;5.40;;;;;;;;;;5031252;28;20188;-68
2022/10/19 03:30:20;;;;;;;9.70;4.57;;;;;;;;;;5029348;28;20364;-68
2022/10/19 03:32:45;;;;;;;12.17;4.83;;;;;;;;;;5034972;28;20205;-67
2022/10/19 03:35:10;;;;;;;9.87;4.63;;;;;;;;;;5027093;28;20193;-67
2022/10/19 03:37:36;;;;;;;6.80;4.70;;;;;;;;;;5029938;28;20173;-68
2022/10/19 03:40:01;;;;;;;6.20;4.13;;;;;;;;;;5031075;28;20190;-68
2022/10/19 03:42:26;;;;;;;6.87;4.43;;;;;;;;;;5029494;28;20199;-67
2022/10/19 03:44:51;;;;;;;6.27;3.90;;;;;;;;;;5028579;28;20285;-68
2022/10/19 03:47:16;;;;;;;15.37;7.90;;;;;;;;;;5026677;28;20190;-67
2022/10/19 03:49:42;;;;;;;13.43;5.77;;;;;;;;;;5029750;28;20241;-67
2022/10/19 03:52:08;;;;;;;8.30;4.60;;;;;;;;;;5042456;28;20194;-67
2022/10/19 03:54:34;;;;;;;8.90;5.03;;;;;;;;;;5028220;28;20170;-68
2022/10/19 03:56:59;;;;;;;10.93;5.07;;;;;;;;;;5043954;28;20258;-68
2022/10/19 03:59:24;;;;;;;12.40;5.17;;;;;;;;;;5029166;28;20177;-67
2022/10/19 04:01:49;;;;;;;9.33;5.57;;;;;;;;;;5028247;28;20210;-68
2022/10/19 04:04:16;;;;;;;12.20;5.23;;;;;;;;;;5026465;28;20505;-67
2022/10/19 04:06:43;;;;;;;7.77;4.70;;;;;;;;;;5028891;28;20186;-67
2022/10/19 04:09:10;;;;;;;8.87;3.73;;;;;;;;;;5030386;28;20309;-67
2022/10/19 04:11:36;;;;;;;12.57;5.40;;;;;;;;;;5030030;28;20190;-67
2022/10/19 04:14:01;;;;;;;7.40;4.50;;;;;;;;;;5029247;28;20562;-68
2022/10/19 04:16:27;;;;;;;11.03;4.33;;;;;;;;;;5025963;28;20170;-68
2022/10/19 04:18:53;;;;;;;8.67;4.00;;;;;;;;;;5025838;28;20185;-67
2022/10/19 04:21:26;;;;;;;10.10;5.23;;;;;;;;;;5028221;28;20178;-68
2022/10/19 04:23:52;;;;;;;7.47;4.50;;;;;;;;;;5026840;28;20205;-68
2022/10/19 04:26:17;;;;;;;10.33;4.27;;;;;;;;;;5028133;28;20256;-67
2022/10/19 04:28:43;;;;;;;10.73;5.93;;;;;;;;;;5029790;28;20640;-67
2022/10/19 04:31:09;;;;;;;7.83;4.03;;;;;;;;;;5029210;28;20269;-68
2022/10/19 04:33:34;;;;;;;7.53;4.70;;;;;;;;;;5022715;28;20647;-67
2022/10/19 04:36:00;;;;;;;6.13;4.00;;;;;;;;;;5024802;28;20233;-67
2022/10/19 04:38:25;;;;;;;6.63;4.10;;;;;;;;;;5028662;28;20198;-68
2022/10/19 04:40:51;;;;;;;9.23;3.83;;;;;;;;;;5028832;28;20185;-68
2022/10/19 04:43:16;;;;;;;9.40;4.97;;;;;;;;;;5027837;28;20210;-67
2022/10/19 04:45:41;;;;;;;8.47;4.13;;;;;;;;;;5027229;28;20228;-68
2022/10/19 04:48:06;;;;;;;6.93;4.80;;;;;;;;;;5018489;28;20178;-67
2022/10/19 04:50:32;;;;;;;10.40;4.07;;;;;;;;;;5029373;28;20210;-67
2022/10/19 04:52:57;;;;;;;8.33;4.30;;;;;;;;;;5028772;28;20623;-67
2022/10/19 04:55:22;;;;;;;8.27;4.30;;;;;;;;;;5019925;28;20623;-67
2022/10/19 04:57:47;;;;;;;11.87;4.90;;;;;;;;;;5026781;28;20182;-68
2022/10/19 05:00:13;;;;;;;8.87;4.10;;;;;;;;;;5027194;28;20190;-67
2022/10/19 05:02:43;;;;;;;7.70;3.90;;;;;;;;;;5025808;28;20209;-67
2022/10/19 05:05:08;;;;;;;6.27;3.73;;;;;;;;;;5028143;28;20178;-67
2022/10/19 05:07:33;;;;;;;10.30;3.50;;;;;;;;;;5030337;28;20197;-68
2022/10/19 05:09:58;;;;;;;7.37;3.90;;;;;;;;;;5030009;28;20202;-68
2022/10/19 05:12:24;;;;;;;8.43;3.90;;;;;;;;;;5025105;28;20285;-68
2022/10/19 05:14:49;;;;;;;8.57;3.83;;;;;;;;;;5027816;28;20255;-68
2022/10/19 05:17:14;;;;;;;6.80;3.40;;;;;;;;;;5026612;28;20188;-67
2022/10/19 05:19:39;;;;;;;7.17;3.50;;;;;;;;;;5025373;28;20178;-67
2022/10/19 05:22:04;;;;;;;7.20;3.80;;;;;;;;;;5028462;28;20218;-68
2022/10/19 05:24:31;;;;;;;15.30;5.23;;;;;;;;;;5028255;28;20640;-68
2022/10/19 05:26:56;;;;;;;7.23;3.50;;;;;;;;;;5042588;28;20333;-68
2022/10/19 05:29:23;;;;;;;8.30;3.30;;;;;;;;;;5025942;28;20641;-68
2022/10/19 05:31:48;;;;;;;6.10;3.67;;;;;;;;;;5043454;28;20194;-68
2022/10/19 05:34:13;;;;;;;7.97;3.73;;;;;;;;;;5024898;28;20185;-68
2022/10/19 05:36:38;;;;;;;9.27;3.73;;;;;;;;;;5027953;28;20171;-68
2022/10/19 05:39:04;;;;;;;9.67;3.90;;;;;;;;;;5027473;28;20200;-68
2022/10/19 05:41:29;;;;;;;11.60;4.37;;;;;;;;;;5025428;28;20202;-67
2022/10/19 05:43:55;;;;;;;9.93;4.40;;;;;;;;;;5028419;28;20182;-68
2022/10/19 05:46:21;;;;;;;6.53;3.13;;;;;;;;;;5030014;28;20187;-69
2022/10/19 05:48:47;;;;;;;11.07;4.80;;;;;;;;;;5026177;28;20275;-69
2022/10/19 05:51:13;;;;;;;9.23;4.23;;;;;;;;;;5029356;28;20175;-69
2022/10/19 05:53:38;;;;;;;8.90;3.23;;;;;;;;;;5026906;28;20186;-67
2022/10/19 05:56:04;;;;;;;6.57;3.83;;;;;;;;;;5028522;28;20254;-69
2022/10/19 05:58:30;;;;;;;14.20;3.70;;;;;;;;;;5026115;28;20182;-69
2022/10/19 06:00:56;;;;;;;6.83;3.90;;;;;;;;;;5020162;28;20280;-67
2022/10/19 06:03:21;;;;;;;9.30;3.90;;;;;;;;;;5027894;28;20668;-67
2022/10/19 06:05:48;;;;;;;9.13;4.27;;;;;;;;;;5026174;28;20185;-68
2022/10/19 06:08:13;;;;;;;6.00;3.73;;;;;;;;;;5027799;28;20174;-67
2022/10/19 06:10:38;;;;;;;5.97;4.20;;;;;;;;;;5025835;28;20216;-67
2022/10/19 06:13:03;;;;;;;5.13;3.40;;;;;;;;;;5025776;28;20206;-67
2022/10/19 06:15:31;;;;;;;10.43;4.30;;;;;;;;;;5029152;28;20217;-67
2022/10/19 06:17:56;;;;;;;7.30;3.63;;;;;;;;;;5030199;28;20182;-67
2022/10/19 06:20:21;;;;;;;5.47;4.30;;;;;;;;;;5030402;28;20640;-67
2022/10/19 06:22:46;;;;;;;9.90;4.53;;;;;;;;;;5032910;28;20210;-70
2022/10/19 06:25:12;;;;;;;12.03;4.07;;;;;;;;;;5032157;28;20182;-69
2022/10/19 06:27:37;;;;;;;9.30;3.70;;;;;;;;;;5033124;28;20170;-70
2022/10/19 06:30:02;;;;;;;8.37;4.10;;;;;;;;;;5032809;28;20220;-70
2022/10/19 06:32:28;;;;;;;9.27;4.20;;;;;;;;;;5037735;28;20199;-69
2022/10/19 06:34:53;;;;;;;9.77;4.53;;;;;;;;;;5046359;28;20225;-68
2022/10/19 06:37:18;;;;;;;13.70;4.80;;;;;;;;;;5032188;28;20186;-69
2022/10/19 06:39:43;;;;;;;6.50;4.03;;;;;;;;;;5048101;28;20186;-69
2022/10/19 06:42:08;;;;;;;7.53;3.80;;;;;;;;;;5031571;28;20204;-70
2022/10/19 06:44:34;;;;;;;8.87;3.80;;;;;;;;;;5032610;28;20317;-69
2022/10/19 06:46:59;;;;;;;9.30;4.17;;;;;;;;;;5031937;28;20229;-67
2022/10/19 06:49:24;;;;;;;15.40;4.87;;;;;;;;;;5032414;28;20202;-69
2022/10/19 06:51:49;;;;;;;9.43;4.47;;;;;;;;;;5032132;28;20194;-69
2022/10/19 06:54:14;;;;;;;13.50;4.70;;;;;;;;;;5038980;28;20235;-67
2022/10/19 06:56:40;;;;;;;7.50;4.13;;;;;;;;;;5029730;28;20270;-68
2022/10/19 06:59:05;;;;;;;10.57;5.43;;;;;;;;;;5032255;28;20213;-68
2022/10/19 07:01:30;;;;;;;10.60;4.70;;;;;;;;;;5030917;28;20252;-68
2022/10/19 07:03:55;;;;;;;10.57;4.50;;;;;;;;;;5031329;28;20189;-68
2022/10/19 07:06:21;;;;;;;10.97;4.50;;;;;;;;;;5032134;28;20216;-68
2022/10/19 07:08:46;;;;;;;7.60;4.37;;;;;;;;;;5031654;28;20217;-70
2022/10/19 07:11:16;;;;;;;11.77;4.27;;;;;;;;;;5027869;28;20193;-67
2022/10/19 07:13:41;;;;;;;8.73;4.33;;;;;;;;;;5030350;28;20174;-67
2022/10/19 07:16:11;;;;;;;9.57;4.40;;;;;;;;;;5030373;28;20187;-68
2022/10/19 07:18:37;;;;;;;10.50;4.30;;;;;;;;;;5030551;28;20206;-67
2022/10/19 07:21:04;;;;;;;9.23;4.60;;;;;;;;;;5030296;28;20186;-68
2022/10/19 07:23:30;;;;;;;6.87;4.10;;;;;;;;;;5029553;28;20233;-68
2022/10/19 07:26:00;;;;;;;9.77;4.17;;;;;;;;;;5026428;28;20182;-70
2022/10/19 07:28:26;;;;;;;9.27;3.87;;;;;;;;;;5025878;28;20181;-70
2022/10/19 07:30:51;;;;;;;12.13;4.83;;;;;;;;;;5028952;28;20526;-70
2022/10/19 07:33:16;;;;;;;7.57;4.20;;;;;;;;;;5030224;28;20691;-67
2022/10/19 07:35:41;;;;;;;15.13;5.33;;;;;;;;;;5031554;28;20202;-68
2022/10/19 07:38:07;;;;;;;11.13;4.13;;;;;;;;;;5029147;28;20185;-67
2022/10/19 07:40:32;;;;;;;15.37;4.50;;;;;;;;;;5029767;28;20640;-67
2022/10/19 07:42:58;;;;;;;9.07;3.90;;;;;;;;;;5031194;28;20206;-67
2022/10/19 07:45:23;;;;;;;9.97;3.67;;;;;;;;;;5031068;28;20274;-67
2022/10/19 07:47:48;;;;;;;12.37;3.77;;;;;;;;;;5031655;28;20554;-70
2022/10/19 07:50:13;;;;;;;9.13;3.80;;;;;;;;;;5025882;28;20206;-67
2022/10/19 07:52:38;;;;;;;6.33;3.70;;;;;;;;;;5023765;28;20195;-67
2022/10/19 07:55:04;;;;;;;4.70;3.07;;;;;;;;;;5029696;28;20557;-67
2022/10/19 07:57:29;;;;;;;10.70;4.33;;;;;;;;;;5029109;28;20178;-67
2022/10/19 07:59:54;;;;;;;7.10;3.33;;;;;;;;;;5030023;28;20671;-67
2022/10/19 08:02:19;;;;;;;9.13;3.37;;;;;;;;;;5026550;28;20201;-67
2022/10/19 08:04:44;;;;;;;6.07;3.00;;;;;;;;;;5025100;28;20198;-67
2022/10/19 08:07:10;;;;;;;10.45;3.05;;;;;;;;;;5028026;28;20305;-67
2022/10/19 08:09:35;;;;;;;6.03;2.58;;;;;;;;;;5030085;28;20840;-68
2022/10/19 08:12:00;;;;;;;3.90;1.80;;;;;;;;;;5028552;28;20620;-67
2022/10/19 08:14:26;;;;;;;8.43;2.92;;;;;;;;;;5028874;28;20178;-68
2022/10/19 08:16:51;;;;;;;5.22;1.90;;;;;;;;;;5029590;28;20592;-68
2022/10/19 08:19:16;;;;;;;7.32;1.80;;;;;;;;;;5029222;28;20729;-68
2022/10/19 08:21:43;;;;;;;6.80;2.28;;;;;;;;;;5044763;28;20300;-68
2022/10/19 08:24:09;;;;;;;4.35;1.75;;;;;;;;;;5029349;28;20548;-68
2022/10/19 08:26:36;;;;;;;4.03;2.00;;;;;;;;;;5029105;28;20213;-68
2022/10/19 08:29:07;;;;;;;4.72;1.80;;;;;;;;;;5026549;28;20613;-67
2022/10/19 08:31:32;;;;;;;3.22;1.67;;;;;;;;;;5027279;28;20274;-67
2022/10/19 08:33:57;;;;;;;4.15;1.40;;;;;;;;;;5030270;28;20642;-67
2022/10/19 08:36:23;;;;;;;3.70;1.60;;;;;;;;;;5029587;28;20666;-67
2022/10/19 08:38:48;;;;;;;4.00;1.55;;;;;;;;;;5027649;28;20265;-67
2022/10/19 08:41:19;;;;;;;3.70;1.70;;;;;;;;;;5026839;28;20532;-68
2022/10/19 08:43:51;;;;;;;3.33;2.03;;;;;;;;;;5024893;28;20632;-68
2022/10/19 08:46:22;;;;;;;3.90;1.65;;;;;;;;;;5026335;28;20196;-68
2022/10/19 08:48:47;;;;;;;2.08;1.50;;;;;;;;;;5028791;28;20288;-68
2022/10/19 08:51:13;;;;;;;2.88;1.65;;;;;;;;;;5028753;28;20270;-68
2022/10/19 08:53:42;;;;;;;2.40;1.60;;;;;;;;;;5029356;28;20269;-68
2022/10/19 08:56:17;;;;;;;3.25;1.52;;;;;;;;;;5029193;28;20200;-67
2022/10/19 08:58:54;;;;;;;3.13;1.40;;;;;;;;;;5029050;28;20542;-68
2022/10/19 09:01:38;;;;;;;4.18;1.73;;;;;;;;;;5027305;28;20192;-68
2022/10/19 09:04:22;;;;;;;5.55;1.30;;;;;;;;;;5020134;28;20174;-67
2022/10/19 09:06:50;;;;;;;5.15;1.92;;;;;;;;;;5027274;28;20185;-67
2022/10/19 09:09:17;;;;;;;3.42;1.60;;;;;;;;;;5025833;28;20202;-67
2022/10/19 09:11:45;;;;;;;6.05;1.83;;;;;;;;;;5025991;28;20603;-67
2022/10/19 09:14:11;;;;;;;6.53;1.83;;;;;;;;;;5026833;28;20189;-67
2022/10/19 09:16:36;;;;;;;4.68;1.48;;;;;;;;;;5027359;28;20591;-68
2022/10/19 09:19:02;;;;;;;4.20;1.40;;;;;;;;;;5027538;28;20217;-67
2022/10/19 09:24:24;;;;;;;7.00;1.48;;;;;;;;;;4990772;28;20227;-73
2022/10/19 09:26:52;;;;;;;5.60;1.70;;;;;;;;;;4996166;28;20175;-73
2022/10/19 09:29:39;;;;;;;4.07;2.00;;;;;;;;;;4989995;28;20203;-73
2022/10/19 09:32:09;;;;;;;4.18;1.30;;;;;;;;;;4999706;28;20210;-71
2022/10/19 09:34:36;;;;;;;3.92;1.20;;;;;;;;;;5007161;28;20558;-72
2022/10/19 09:37:02;;;;;;;4.70;1.20;;;;;;;;;;5005515;28;20187;-73
2022/10/19 09:39:28;;;;;;;4.93;1.73;;;;;;;;;;5009214;28;20816;-73
2022/10/19 09:41:54;;;;;;;3.10;1.40;;;;;;;;;;5008434;28;20187;-75
2022/10/19 09:44:20;;;;;;;4.72;1.92;;;;;;;;;;5009238;28;20667;-74
2022/10/19 09:46:50;;;;;;;4.10;1.20;;;;;;;;;;5009621;28;20264;-73
2022/10/19 09:49:15;;;;;;;4.88;1.05;;;;;;;;;;5010824;28;20191;-73
2022/10/19 09:51:50;;;;;;;4.10;1.58;;;;;;;;;;5007475;28;20191;-74
2022/10/19 09:54:29;;;;;;;4.13;1.52;;;;;;;;;;5007605;28;20179;-72
2022/10/19 09:56:56;;;;;;;2.75;1.20;;;;;;;;;;5027777;28;20193;-73
2022/10/19 09:59:22;;;;;;;3.78;1.33;;;;;;;;;;5013402;28;20179;-71
2022/10/19 10:01:57;;;;;;;7.85;1.73;;;;;;;;;;5011329;28;20558;-71
2022/10/19 10:04:22;;;;;;;3.83;1.23;;;;;;;;;;5013762;28;20193;-72
2022/10/19 10:06:48;;;;;;;3.17;1.20;;;;;;;;;;5011838;28;20544;-72
2022/10/19 10:09:17;;;;;;;5.13;1.30;;;;;;;;;;5014720;28;20293;-72
2022/10/19 10:11:44;;;;;;;1.98;1.23;;;;;;;;;;5008576;28;20186;-72
2022/10/19 10:14:18;;;;;;;4.72;1.40;;;;;;;;;;5027765;28;20286;-72
2022/10/19 10:16:43;;;;;;;5.95;1.20;;;;;;;;;;5011786;28;20175;-72
2022/10/19 10:19:11;;;;;;;3.55;1.02;;;;;;;;;;5017446;28;20653;-72
2022/10/19 10:21:46;;;;;;;2.67;1.10;;;;;;;;;;5012209;28;20179;-72
2022/10/19 10:24:11;;;;;;;2.97;0.95;;;;;;;;;;5012653;28;20299;-72
2022/10/19 10:26:41;;;;;;;3.70;0.93;;;;;;;;;;5012525;28;20214;-72
2022/10/19 10:29:19;;;;;;;3.85;0.80;;;;;;;;;;5011048;28;20455;-72
2022/10/19 10:31:46;;;;;;;4.35;1.05;;;;;;;;;;5024841;28;20258;-73
2022/10/19 10:34:15;;;;;;;4.82;1.00;;;;;;;;;;5011338;28;20195;-72
2022/10/19 10:36:41;;;;;;;6.95;1.25;;;;;;;;;;5013713;28;20202;-72
2022/10/19 10:39:07;;;;;;;3.67;1.42;;;;;;;;;;5013229;28;20262;-72
2022/10/19 10:41:39;;;;;;;4.07;0.80;;;;;;;;;;5010908;28;20187;-72
2022/10/19 10:44:15;;;;;;;3.40;1.00;;;;;;;;;;5006927;28;20213;-72
2022/10/19 10:46:44;;;;;;;3.20;1.13;;;;;;;;;;5011752;28;20190;-72
2022/10/19 10:49:18;;;;;;;4.45;0.73;;;;;;;;;;5011124;28;20818;-72
2022/10/19 10:51:44;;;;;;;2.42;0.47;;;;;;;;;;5005483;28;20175;-72
2022/10/19 10:54:18;;;;;;;5.50;0.93;;;;;;;;;;5009572;28;20748;-72
2022/10/19 10:56:53;;;;;;;5.53;1.00;;;;;;;;;;5010592;28;20197;-72
2022/10/19 10:59:23;;;;;;;2.70;0.60;;;;;;;;;;5010262;28;20675;-72
2022/10/19 11:02:08;;;;;;;3.28;0.80;;;;;;;;;;5004157;28;20179;-72
2022/10/19 11:04:37;;;;;;;1.80;0.70;;;;;;;;;;4994776;28;20501;-72
2022/10/19 11:07:23;;;;;;;1.50;0.55;;;;;;;;;;5012125;28;20266;-72
2022/10/19 11:09:53;;;;;;;2.67;0.77;;;;;;;;;;5011540;28;20199;-72
2022/10/19 11:12:22;;;;;;;2.45;1.05;;;;;;;;;;5011668;28;20191;-72
2022/10/19 11:14:55;;;;;;;2.88;0.95;;;;;;;;;;5011299;28;20182;-73
2022/10/19 11:17:25;;;;;;;2.50;0.80;;;;;;;;;;5012272;28;20679;-72
2022/10/19 11:19:51;;;;;;;1.98;0.88;;;;;;;;;;5017578;28;20198;-72
2022/10/19 11:22:27;;;;;;;3.50;0.80;;;;;;;;;;5010285;28;20688;-72
2022/10/19 11:24:55;;;;;;;3.17;0.55;;;;;;;;;;5028716;28;20194;-72
2022/10/19 11:27:28;;;;;;;1.75;1.00;;;;;;;;;;5010513;28;20265;-72
2022/10/19 11:29:59;;;;;;;1.80;0.88;;;;;;;;;;5009381;28;20278;-72
2022/10/19 11:32:24;;;;;;;2.67;0.98;;;;;;;;;;5010275;28;20202;-72
2022/10/19 11:34:59;;;;;;;1.93;0.70;;;;;;;;;;5009797;28;20273;-72
2022/10/19 11:37:47;;;;;;;1.80;1.10;;;;;;;;;;5011446;28;20436;-72
2022/10/19 11:40:17;;;;;;;2.60;1.10;;;;;;;;;;4999373;28;20382;-72
2022/10/19 11:42:52;;;;;;;1.35;0.80;;;;;;;;;;5004454;28;20691;-72
2022/10/19 11:45:29;;;;;;;3.35;1.30;;;;;;;;;;5012571;28;20683;-72
2022/10/19 11:48:03;;;;;;;4.53;1.27;;;;;;;;;;5009785;28;20811;-72
2022/10/19 11:50:47;;;;;;;2.20;0.82;;;;;;;;;;5008496;28;20221;-72
2022/10/19 11:53:31;;;;;;;2.47;1.27;;;;;;;;;;5011059;28;20285;-72
2022/10/19 11:56:02;;;;;;;1.42;1.30;;;;;;;;;;5009975;28;20190;-72
2022/10/19 11:58:42;;;;;;;1.55;1.10;;;;;;;;;;5006519;28;20175;-72
2022/10/19 12:01:07;;;;;;;2.22;1.45;;;;;;;;;;5009011;28;20541;-72
2022/10/19 12:03:41;;;;;;;2.83;1.10;;;;;;;;;;5009123;28;20210;-72
2022/10/19 12:06:15;;;;;;;2.33;1.05;;;;;;;;;;5014703;28;20223;-72
2022/10/19 12:08:56;;;;;;;3.97;1.70;;;;;;;;;;5010963;28;20175;-72
2022/10/19 12:11:40;;;;;;;2.67;1.35;;;;;;;;;;5003513;28;20548;-72
2022/10/19 12:14:10;;;;;;;5.07;1.40;;;;;;;;;;5007369;28;20237;-72
2022/10/19 12:16:43;;;;;;;6.68;2.78;;;;;;;;;;5008283;28;20255;-72
2022/10/19 12:19:14;;;;;;;1.77;1.10;;;;;;;;;;5008706;28;20219;-72
2022/10/19 12:21:41;;;;;;;3.17;1.52;;;;;;;;;;5009499;28;20282;-72
2022/10/19 12:24:11;;;;;;;2.97;1.58;;;;;;;;;;5027041;28;20444;-72
2022/10/19 12:26:38;;;;;;;3.33;1.80;;;;;;;;;;5010858;28;20187;-72
2022/10/19 12:29:16;;;;;;;5.55;1.50;;;;;;;;;;5010640;28;20218;-73
2022/10/19 12:31:42;;;;;;;4.57;2.45;;;;;;;;;;5010435;28;20721;-73
2022/10/19 12:34:25;;;;;;;6.93;1.30;;;;;;;;;;5009590;28;20207;-72
2022/10/19 12:36:51;;;;;;;2.53;1.30;;;;;;;;;;5031307;28;20261;-73
2022/10/19 12:39:28;;;;;;;2.63;1.30;;;;;;;;;;5013344;28;20270;-72
2022/10/19 12:42:09;;;;;;;3.55;1.60;;;;;;;;;;5015773;28;20859;-72
2022/10/19 12:44:53;;;;;;;5.07;1.33;;;;;;;;;;5009849;28;20509;-73
2022/10/19 12:47:21;;;;;;;6.18;1.67;;;;;;;;;;5011042;28;20557;-72
2022/10/19 12:49:49;;;;;;;5.75;1.70;;;;;;;;;;5010740;28;20370;-72
2022/10/19 12:52:16;;;;;;;2.92;1.25;;;;;;;;;;5009636;28;20298;-72
2022/10/19 12:54:42;;;;;;;3.53;1.10;;;;;;;;;;5004779;28;20197;-72
2022/10/19 12:57:26;;;;;;;4.25;0.98;;;;;;;;;;5008727;28;20667;-71
2022/10/19 13:00:04;;;;;;;2.72;1.33;;;;;;;;;;5005085;28;20196;-72
2022/10/19 13:02:31;;;;;;;3.67;1.15;;;;;;;;;;5008798;28;20241;-72
2022/10/19 13:04:57;;;;;;;3.70;1.20;;;;;;;;;;5007699;28;20912;-72
2022/10/19 13:07:23;;;;;;;5.53;1.98;;;;;;;;;;5010013;28;20187;-72
2022/10/19 13:09:57;;;;;;;4.07;1.33;;;;;;;;;;5011155;28;20293;-72
2022/10/19 13:12:22;;;;;;;2.85;1.25;;;;;;;;;;5010481;28;20211;-72
2022/10/19 13:14:49;;;;;;;2.70;1.27;;;;;;;;;;5011120;28;20700;-72
2022/10/19 13:17:32;;;;;;;3.20;1.50;;;;;;;;;;5009561;28;20482;-72
2022/10/19 13:20:13;;;;;;;1.73;0.80;;;;;;;;;;5011319;28;20182;-72
2022/10/19 13:22:39;;;;;;;3.67;1.42;;;;;;;;;;5011413;28;20218;-72
2022/10/19 13:25:30;;;;;;;3.92;1.30;;;;;;;;;;5011005;28;20229;-72
2022/10/19 13:28:04;;;;;;;2.35;0.98;;;;;;;;;;5012113;28;20744;-72
2022/10/19 13:30:36;;;;;;;3.88;0.93;;;;;;;;;;5011524;28;20217;-72
2022/10/19 13:33:37;;;;;;;3.38;1.00;;;;;;;;;;5008659;28;20195;-72
2022/10/19 13:36:06;;;;;;;2.22;0.90;;;;;;;;;;4961145;28;20640;-72
2022/10/19 13:38:54;;;;;;;3.00;1.00;;;;;;;;;;5002885;28;20620;-72
2022/10/19 13:41:35;;;;;;;5.80;1.65;;;;;;;;;;5001017;28;20233;-72
2022/10/19 13:44:13;;;;;;;2.70;1.02;;;;;;;;;;5007200;28;20214;-72
2022/10/19 13:46:52;;;;;;;3.63;1.70;;;;;;;;;;5007487;28;20600;-72
2022/10/19 13:49:22;;;;;;;2.97;1.20;;;;;;;;;;5003626;28;20213;-71
2022/10/19 13:51:48;;;;;;;8.20;2.20;;;;;;;;;;5003340;28;20167;-72
2022/10/19 13:54:16;;;;;;;3.88;0.95;;;;;;;;;;5005904;28;20539;-72
2022/10/19 13:57:01;;;;;;;3.70;1.08;;;;;;;;;;5012933;28;20666;-71
2022/10/19 13:59:45;;;;;;;2.75;1.42;;;;;;;;;;4985151;28;20207;-72
2022/10/19 14:02:29;;;;;;;7.57;2.08;;;;;;;;;;5007361;28;20629;-71
2022/10/19 14:05:17;;;;;;;4.22;1.17;;;;;;;;;;5001634;28;20602;-71
2022/10/19 14:07:57;;;;;;;3.13;1.00;;;;;;;;;;5026363;28;20189;-72
2022/10/19 14:10:23;;;;;;;2.70;1.05;;;;;;;;;;5005784;28;20190;-72
2022/10/19 14:12:49;;;;;;;2.45;1.00;;;;;;;;;;5001059;28;20206;-72
2022/10/19 14:15:19;;;;;;;2.28;0.85;;;;;;;;;;5007211;28;20175;-72
2022/10/19 14:17:45;;;;;;;3.55;0.90;;;;;;;;;;5011952;28;20549;-72
2022/10/19 14:20:23;;;;;;;3.00;1.00;;;;;;;;;;5009251;28;20179;-72
2022/10/19 14:22:49;;;;;;;2.60;1.05;;;;;;;;;;5005496;28;20717;-72
2022/10/19 14:25:17;;;;;;;4.78;0.80;;;;;;;;;;5008940;28;20269;-72
2022/10/19 14:27:42;;;;;;;2.47;1.08;;;;;;;;;;5003721;28;20179;-71
2022/10/19 14:30:31;;;;;;;1.60;0.85;;;;;;;;;;5010839;28;20209;-72
2022/10/19 14:32:57;;;;;;;6.50;1.08;;;;;;;;;;5001597;28;20233;-72
2022/10/19 14:35:23;;;;;;;5.03;1.42;;;;;;;;;;5004370;28;20266;-72
2022/10/19 14:37:48;;;;;;;4.47;2.00;;;;;;;;;;5007775;28;20716;-72
2022/10/19 14:40:20;;;;;;;4.47;1.17;;;;;;;;;;5007730;28;20428;-72
2022/10/19 14:42:45;;;;;;;2.00;0.85;;;;;;;;;;5006046;28;20210;-71
2022/10/19 14:45:21;;;;;;;3.08;1.25;;;;;;;;;;5013810;28;20182;-72
2022/10/19 14:47:54;;;;;;;4.35;1.48;;;;;;;;;;5005987;28;20549;-71
2022/10/19 14:50:21;;;;;;;4.93;1.15;;;;;;;;;;5015403;28;20199;-71